sensor_id;sensor_type;location;lat;lon;timestamp;pressure;altitude;pressure_sealevel;temperature;humidity
18500;BME280;9379;52.134;11.576;2023-03-16T00:01:03;101502.34;;;4.41;79.98
18500;BME280;9379;52.134;11.576;2023-03-16T00:03:30;101488.50;;;4.72;78.95
18500;BME280;9379;52.134;11.576;2023-03-16T00:05:57;101490.09;;;4.40;79.69
18500;BME280;9379;52.134;11.576;2023-03-16T00:08:24;101499.53;;;4.44;78.73
18500;BME280;9379;52.134;11.576;2023-03-16T00:10:52;101491.81;;;4.22;79.79
18500;BME280;9379;52.134;11.576;2023-03-16T00:13:20;101493.34;;;4.09;79.20
18500;BME280;9379;52.134;11.576;2023-03-16T00:15:50;101498.78;;;4.04;80.49
18500;BME280;9379;52.134;11.576;2023-03-16T00:18:18;101506.97;;;3.98;80.88
18500;BME280;9379;52.134;11.576;2023-03-16T00:20:49;101519.69;;;3.89;82.31
18500;BME280;9379;52.134;11.576;2023-03-16T00:23:16;101512.00;;;4.03;81.15
18500;BME280;9379;52.134;11.576;2023-03-16T00:25:43;101518.56;;;3.55;80.98
18500;BME280;9379;52.134;11.576;2023-03-16T00:28:10;101517.47;;;3.61;81.69
18500;BME280;9379;52.134;11.576;2023-03-16T00:30:38;101499.88;;;4.00;79.67
18500;BME280;9379;52.134;11.576;2023-03-16T00:33:05;101508.69;;;3.99;79.54
18500;BME280;9379;52.134;11.576;2023-03-16T00:35:34;101518.88;;;3.68;81.62
18500;BME280;9379;52.134;11.576;2023-03-16T00:38:01;101522.47;;;3.46;81.96
18500;BME280;9379;52.134;11.576;2023-03-16T00:40:28;101515.16;;;3.53;84.01
18500;BME280;9379;52.134;11.576;2023-03-16T00:42:55;101517.50;;;3.98;81.50
18500;BME280;9379;52.134;11.576;2023-03-16T00:45:22;101502.84;;;3.93;81.07
18500;BME280;9379;52.134;11.576;2023-03-16T00:47:49;101519.47;;;4.12;81.46
18500;BME280;9379;52.134;11.576;2023-03-16T00:50:18;101520.19;;;3.78;80.21
18500;BME280;9379;52.134;11.576;2023-03-16T00:52:48;101520.16;;;3.59;81.92
18500;BME280;9379;52.134;11.576;2023-03-16T00:55:18;101524.63;;;3.57;82.06
18500;BME280;9379;52.134;11.576;2023-03-16T00:57:44;101522.81;;;3.78;81.50
18500;BME280;9379;52.134;11.576;2023-03-16T01:00:12;101516.50;;;3.82;80.90
18500;BME280;9379;52.134;11.576;2023-03-16T01:02:41;101503.03;;;3.30;82.17
18500;BME280;9379;52.134;11.576;2023-03-16T01:05:09;101520.28;;;3.95;80.24
18500;BME280;9379;52.134;11.576;2023-03-16T01:07:37;101523.22;;;3.69;81.70
18500;BME280;9379;52.134;11.576;2023-03-16T01:10:06;101515.69;;;3.61;81.42
18500;BME280;9379;52.134;11.576;2023-03-16T01:12:33;101530.63;;;3.61;81.91
18500;BME280;9379;52.134;11.576;2023-03-16T01:15:00;101524.84;;;3.53;81.91
18500;BME280;9379;52.134;11.576;2023-03-16T01:17:27;101512.31;;;3.39;81.47
18500;BME280;9379;52.134;11.576;2023-03-16T01:19:54;101495.84;;;3.54;81.38
18500;BME280;9379;52.134;11.576;2023-03-16T01:22:21;101513.16;;;3.39;80.72
18500;BME280;9379;52.134;11.576;2023-03-16T01:24:47;101510.66;;;3.36;82.35
18500;BME280;9379;52.134;11.576;2023-03-16T01:27:16;101496.63;;;3.56;80.94
18500;BME280;9379;52.134;11.576;2023-03-16T01:29:42;101504.19;;;4.20;79.29
18500;BME280;9379;52.134;11.576;2023-03-16T01:32:10;101481.88;;;4.29;78.52
18500;BME280;9379;52.134;11.576;2023-03-16T01:34:37;101474.03;;;4.27;78.78
18500;BME280;9379;52.134;11.576;2023-03-16T01:37:04;101504.97;;;4.41;78.91
18500;BME280;9379;52.134;11.576;2023-03-16T01:39:30;101501.56;;;4.20;78.33
18500;BME280;9379;52.134;11.576;2023-03-16T01:41:57;101504.78;;;4.08;79.42
18500;BME280;9379;52.134;11.576;2023-03-16T01:44:26;101496.16;;;4.23;79.40
18500;BME280;9379;52.134;11.576;2023-03-16T01:46:55;101497.25;;;4.19;79.36
18500;BME280;9379;52.134;11.576;2023-03-16T01:49:24;101506.78;;;4.39;79.67
18500;BME280;9379;52.134;11.576;2023-03-16T01:51:54;101497.19;;;4.38;78.36
18500;BME280;9379;52.134;11.576;2023-03-16T01:54:24;101500.91;;;4.34;79.50
18500;BME280;9379;52.134;11.576;2023-03-16T01:56:59;101494.94;;;4.30;78.96
18500;BME280;9379;52.134;11.576;2023-03-16T01:59:35;101487.75;;;4.15;80.07
18500;BME280;9379;52.134;11.576;2023-03-16T02:02:02;101498.78;;;4.04;78.89
18500;BME280;9379;52.134;11.576;2023-03-16T02:04:36;101491.19;;;4.17;79.49
18500;BME280;9379;52.134;11.576;2023-03-16T02:07:05;101486.06;;;4.33;78.55
18500;BME280;9379;52.134;11.576;2023-03-16T02:09:34;101488.19;;;4.25;78.36
18500;BME280;9379;52.134;11.576;2023-03-16T02:12:02;101490.97;;;4.22;77.82
18500;BME280;9379;52.134;11.576;2023-03-16T02:14:31;101468.41;;;4.16;78.76
18500;BME280;9379;52.134;11.576;2023-03-16T02:16:58;101477.97;;;4.72;76.77
18500;BME280;9379;52.134;11.576;2023-03-16T02:19:35;101485.94;;;4.71;77.01
18500;BME280;9379;52.134;11.576;2023-03-16T02:22:05;101478.59;;;4.60;76.42
18500;BME280;9379;52.134;11.576;2023-03-16T02:24:33;101483.25;;;4.36;77.75
18500;BME280;9379;52.134;11.576;2023-03-16T02:27:01;101477.53;;;4.09;78.70
18500;BME280;9379;52.134;11.576;2023-03-16T02:29:59;101484.72;;;3.68;80.10
18500;BME280;9379;52.134;11.576;2023-03-16T02:32:29;101455.72;;;3.88;80.20
18500;BME280;9379;52.134;11.576;2023-03-16T02:34:58;101485.56;;;4.25;78.97
18500;BME280;9379;52.134;11.576;2023-03-16T02:37:27;101485.63;;;3.67;80.18
18500;BME280;9379;52.134;11.576;2023-03-16T02:39:54;101488.66;;;3.18;81.87
18500;BME280;9379;52.134;11.576;2023-03-16T02:42:23;101497.31;;;3.20;82.42
18500;BME280;9379;52.134;11.576;2023-03-16T02:44:54;101469.00;;;3.47;80.97
18500;BME280;9379;52.134;11.576;2023-03-16T02:47:31;101496.50;;;3.59;80.83
18500;BME280;9379;52.134;11.576;2023-03-16T02:49:59;101500.69;;;3.63;81.47
18500;BME280;9379;52.134;11.576;2023-03-16T02:52:26;101494.81;;;3.77;80.71
18500;BME280;9379;52.134;11.576;2023-03-16T02:54:53;101500.72;;;4.01;80.96
18500;BME280;9379;52.134;11.576;2023-03-16T02:57:20;101485.44;;;3.90;79.89
18500;BME280;9379;52.134;11.576;2023-03-16T02:59:47;101489.28;;;3.83;79.44
18500;BME280;9379;52.134;11.576;2023-03-16T03:02:14;101504.91;;;4.05;79.84
18500;BME280;9379;52.134;11.576;2023-03-16T03:04:42;101479.25;;;3.91;79.83
18500;BME280;9379;52.134;11.576;2023-03-16T03:07:11;101500.09;;;3.96;79.35
18500;BME280;9379;52.134;11.576;2023-03-16T03:09:39;101486.44;;;3.88;79.80
18500;BME280;9379;52.134;11.576;2023-03-16T03:12:07;101497.81;;;3.88;79.91
18500;BME280;9379;52.134;11.576;2023-03-16T03:14:34;101473.66;;;3.41;80.71
18500;BME280;9379;52.134;11.576;2023-03-16T03:17:02;101496.41;;;3.42;81.55
18500;BME280;9379;52.134;11.576;2023-03-16T03:19:29;101481.53;;;3.02;82.69
18500;BME280;9379;52.134;11.576;2023-03-16T03:21:59;101500.41;;;3.10;82.90
18500;BME280;9379;52.134;11.576;2023-03-16T03:24:28;101512.44;;;3.36;82.25
18500;BME280;9379;52.134;11.576;2023-03-16T03:26:56;101508.34;;;2.88;82.08
18500;BME280;9379;52.134;11.576;2023-03-16T03:29:25;101506.72;;;2.63;83.25
18500;BME280;9379;52.134;11.576;2023-03-16T03:31:58;101498.47;;;3.15;82.09
18500;BME280;9379;52.134;11.576;2023-03-16T03:34:25;101493.00;;;2.79;83.82
18500;BME280;9379;52.134;11.576;2023-03-16T03:36:52;101492.66;;;2.44;84.33
18500;BME280;9379;52.134;11.576;2023-03-16T03:39:20;101489.09;;;2.87;83.21
18500;BME280;9379;52.134;11.576;2023-03-16T03:41:47;101501.00;;;3.16;81.89
18500;BME280;9379;52.134;11.576;2023-03-16T03:44:13;101496.16;;;2.65;83.44
18500;BME280;9379;52.134;11.576;2023-03-16T03:46:40;101498.97;;;2.82;82.87
18500;BME280;9379;52.134;11.576;2023-03-16T03:49:07;101492.44;;;2.71;83.23
18500;BME280;9379;52.134;11.576;2023-03-16T03:51:34;101492.13;;;3.19;81.83
18500;BME280;9379;52.134;11.576;2023-03-16T03:54:01;101497.38;;;3.39;81.17
18500;BME280;9379;52.134;11.576;2023-03-16T03:56:29;101506.13;;;3.40;81.25
18500;BME280;9379;52.134;11.576;2023-03-16T03:58:55;101479.22;;;3.14;82.65
18500;BME280;9379;52.134;11.576;2023-03-16T04:01:22;101503.22;;;3.46;81.12
18500;BME280;9379;52.134;11.576;2023-03-16T04:03:49;101501.25;;;3.51;82.34
18500;BME280;9379;52.134;11.576;2023-03-16T04:06:16;101492.88;;;3.62;80.80
18500;BME280;9379;52.134;11.576;2023-03-16T04:08:43;101497.50;;;3.75;80.70
18500;BME280;9379;52.134;11.576;2023-03-16T04:11:09;101481.78;;;3.55;80.30
18500;BME280;9379;52.134;11.576;2023-03-16T04:13:37;101503.81;;;3.53;80.56
18500;BME280;9379;52.134;11.576;2023-03-16T04:16:05;101480.53;;;3.04;81.80
18500;BME280;9379;52.134;11.576;2023-03-16T04:18:31;101502.38;;;2.84;83.26
18500;BME280;9379;52.134;11.576;2023-03-16T04:21:03;101498.09;;;3.22;83.22
18500;BME280;9379;52.134;11.576;2023-03-16T04:23:31;101493.81;;;3.01;82.49
18500;BME280;9379;52.134;11.576;2023-03-16T04:25:59;101496.88;;;3.31;81.96
18500;BME280;9379;52.134;11.576;2023-03-16T04:28:26;101504.88;;;3.28;82.32
18500;BME280;9379;52.134;11.576;2023-03-16T04:30:54;101482.22;;;3.65;79.90
18500;BME280;9379;52.134;11.576;2023-03-16T04:33:21;101504.44;;;3.18;81.34
18500;BME280;9379;52.134;11.576;2023-03-16T04:35:48;101496.47;;;3.20;81.84
18500;BME280;9379;52.134;11.576;2023-03-16T04:38:16;101500.66;;;3.24;81.37
18500;BME280;9379;52.134;11.576;2023-03-16T04:40:49;101511.38;;;2.79;83.01
18500;BME280;9379;52.134;11.576;2023-03-16T04:43:16;101499.59;;;2.87;83.29
18500;BME280;9379;52.134;11.576;2023-03-16T04:45:43;101489.00;;;2.90;82.03
18500;BME280;9379;52.134;11.576;2023-03-16T04:48:11;101519.34;;;2.76;82.77
18500;BME280;9379;52.134;11.576;2023-03-16T04:50:38;101518.44;;;2.77;84.22
18500;BME280;9379;52.134;11.576;2023-03-16T04:53:05;101507.72;;;3.03;83.39
18500;BME280;9379;52.134;11.576;2023-03-16T04:55:33;101496.69;;;3.15;82.96
18500;BME280;9379;52.134;11.576;2023-03-16T04:58:00;101501.25;;;3.31;82.93
18500;BME280;9379;52.134;11.576;2023-03-16T05:00:27;101515.53;;;3.25;81.74
18500;BME280;9379;52.134;11.576;2023-03-16T05:02:54;101515.16;;;2.72;82.18
18500;BME280;9379;52.134;11.576;2023-03-16T05:05:22;101512.31;;;2.76;83.37
18500;BME280;9379;52.134;11.576;2023-03-16T05:07:49;101520.06;;;3.01;82.22
18500;BME280;9379;52.134;11.576;2023-03-16T05:10:17;101509.66;;;2.98;83.21
18500;BME280;9379;52.134;11.576;2023-03-16T05:12:44;101519.31;;;2.98;82.59
18500;BME280;9379;52.134;11.576;2023-03-16T05:15:11;101521.59;;;2.85;82.68
18500;BME280;9379;52.134;11.576;2023-03-16T05:17:39;101521.09;;;2.97;82.72
18500;BME280;9379;52.134;11.576;2023-03-16T05:20:08;101522.50;;;2.84;83.00
18500;BME280;9379;52.134;11.576;2023-03-16T05:22:39;101522.16;;;2.71;82.37
18500;BME280;9379;52.134;11.576;2023-03-16T05:25:06;101520.13;;;2.78;83.77
18500;BME280;9379;52.134;11.576;2023-03-16T05:27:34;101526.19;;;2.80;83.54
18500;BME280;9379;52.134;11.576;2023-03-16T05:30:00;101524.84;;;2.91;83.43
18500;BME280;9379;52.134;11.576;2023-03-16T05:32:27;101518.97;;;2.85;82.97
18500;BME280;9379;52.134;11.576;2023-03-16T05:34:54;101522.06;;;2.95;83.07
18500;BME280;9379;52.134;11.576;2023-03-16T05:37:21;101525.56;;;2.95;82.70
18500;BME280;9379;52.134;11.576;2023-03-16T05:39:49;101530.75;;;3.17;83.06
18500;BME280;9379;52.134;11.576;2023-03-16T05:42:16;101526.19;;;3.00;81.78
18500;BME280;9379;52.134;11.576;2023-03-16T05:44:44;101536.00;;;2.97;82.14
18500;BME280;9379;52.134;11.576;2023-03-16T05:47:11;101523.16;;;2.89;82.23
18500;BME280;9379;52.134;11.576;2023-03-16T05:49:38;101513.00;;;3.22;81.20
18500;BME280;9379;52.134;11.576;2023-03-16T05:52:04;101522.66;;;3.21;81.40
18500;BME280;9379;52.134;11.576;2023-03-16T05:54:31;101511.53;;;3.16;81.54
18500;BME280;9379;52.134;11.576;2023-03-16T05:57:00;101524.84;;;3.32;81.92
18500;BME280;9379;52.134;11.576;2023-03-16T05:59:26;101516.56;;;3.21;80.53
18500;BME280;9379;52.134;11.576;2023-03-16T06:01:53;101530.25;;;2.67;82.95
18500;BME280;9379;52.134;11.576;2023-03-16T06:04:20;101527.00;;;2.60;83.20
18500;BME280;9379;52.134;11.576;2023-03-16T06:06:47;101514.50;;;2.67;82.82
18500;BME280;9379;52.134;11.576;2023-03-16T06:09:13;101499.06;;;3.01;81.65
18500;BME280;9379;52.134;11.576;2023-03-16T06:11:40;101521.56;;;3.07;81.79
18500;BME280;9379;52.134;11.576;2023-03-16T06:14:09;101500.88;;;3.19;81.35
18500;BME280;9379;52.134;11.576;2023-03-16T06:16:36;101527.75;;;3.26;81.18
18500;BME280;9379;52.134;11.576;2023-03-16T06:19:03;101505.47;;;3.14;80.49
18500;BME280;9379;52.134;11.576;2023-03-16T06:21:30;101504.56;;;3.15;81.06
18500;BME280;9379;52.134;11.576;2023-03-16T06:23:56;101532.78;;;3.31;81.14
18500;BME280;9379;52.134;11.576;2023-03-16T06:26:23;101521.97;;;3.57;80.20
18500;BME280;9379;52.134;11.576;2023-03-16T06:28:50;101543.28;;;3.71;79.82
18500;BME280;9379;52.134;11.576;2023-03-16T06:31:18;101541.22;;;3.39;80.43
18500;BME280;9379;52.134;11.576;2023-03-16T06:33:45;101516.25;;;3.68;79.67
18500;BME280;9379;52.134;11.576;2023-03-16T06:36:12;101532.13;;;3.46;80.74
18500;BME280;9379;52.134;11.576;2023-03-16T06:38:42;101526.22;;;3.20;81.46
18500;BME280;9379;52.134;11.576;2023-03-16T06:41:09;101518.13;;;3.45;81.25
18500;BME280;9379;52.134;11.576;2023-03-16T06:43:36;101526.22;;;3.80;80.28
18500;BME280;9379;52.134;11.576;2023-03-16T06:46:03;101527.31;;;3.56;80.72
18500;BME280;9379;52.134;11.576;2023-03-16T06:48:31;101529.41;;;3.68;81.55
18500;BME280;9379;52.134;11.576;2023-03-16T06:50:58;101528.16;;;3.56;81.44
18500;BME280;9379;52.134;11.576;2023-03-16T06:53:25;101521.38;;;4.27;79.91
18500;BME280;9379;52.134;11.576;2023-03-16T06:55:51;101523.78;;;5.21;76.67
18500;BME280;9379;52.134;11.576;2023-03-16T06:58:18;101496.31;;;4.56;77.02
18500;BME280;9379;52.134;11.576;2023-03-16T07:00:45;101528.50;;;4.80;77.18
18500;BME280;9379;52.134;11.576;2023-03-16T07:03:12;101531.75;;;4.49;78.75
18500;BME280;9379;52.134;11.576;2023-03-16T07:05:41;101523.31;;;4.24;78.82
18500;BME280;9379;52.134;11.576;2023-03-16T07:08:07;101519.44;;;4.50;78.49
18500;BME280;9379;52.134;11.576;2023-03-16T07:10:34;101525.44;;;4.71;77.57
18500;BME280;9379;52.134;11.576;2023-03-16T07:13:01;101533.53;;;4.85;77.83
18500;BME280;9379;52.134;11.576;2023-03-16T07:15:28;101539.97;;;4.96;76.59
18500;BME280;9379;52.134;11.576;2023-03-16T07:17:55;101539.75;;;5.01;76.63
18500;BME280;9379;52.134;11.576;2023-03-16T07:20:22;101550.13;;;5.04;76.59
18500;BME280;9379;52.134;11.576;2023-03-16T07:22:52;101548.50;;;5.19;76.32
18500;BME280;9379;52.134;11.576;2023-03-16T07:25:19;101550.75;;;5.77;74.55
18500;BME280;9379;52.134;11.576;2023-03-16T07:27:46;101552.22;;;5.32;74.34
18500;BME280;9379;52.134;11.576;2023-03-16T07:30:13;101562.75;;;5.49;74.88
18500;BME280;9379;52.134;11.576;2023-03-16T07:32:40;101559.94;;;5.70;73.86
18500;BME280;9379;52.134;11.576;2023-03-16T07:35:07;101572.94;;;5.90;73.71
18500;BME280;9379;52.134;11.576;2023-03-16T07:37:34;101560.06;;;5.84;73.34
18500;BME280;9379;52.134;11.576;2023-03-16T07:40:04;101562.16;;;5.10;74.27
18500;BME280;9379;52.134;11.576;2023-03-16T07:42:33;101544.31;;;5.49;74.16
18500;BME280;9379;52.134;11.576;2023-03-16T07:45:00;101564.06;;;5.41;74.15
18500;BME280;9379;52.134;11.576;2023-03-16T07:47:27;101579.25;;;5.53;74.15
18500;BME280;9379;52.134;11.576;2023-03-16T07:49:55;101553.59;;;6.23;72.29
18500;BME280;9379;52.134;11.576;2023-03-16T07:52:21;101572.16;;;6.68;71.56
18500;BME280;9379;52.134;11.576;2023-03-16T07:54:48;101569.59;;;6.04;72.48
18500;BME280;9379;52.134;11.576;2023-03-16T07:57:16;101570.72;;;6.47;72.36
18500;BME280;9379;52.134;11.576;2023-03-16T07:59:43;101563.47;;;6.66;71.15
18500;BME280;9379;52.134;11.576;2023-03-16T08:02:11;101583.16;;;6.29;72.77
18500;BME280;9379;52.134;11.576;2023-03-16T08:04:38;101575.31;;;6.59;71.60
18500;BME280;9379;52.134;11.576;2023-03-16T08:07:06;101581.19;;;6.80;71.34
18500;BME280;9379;52.134;11.576;2023-03-16T08:09:33;101586.59;;;5.98;72.63
18500;BME280;9379;52.134;11.576;2023-03-16T08:12:01;101583.91;;;6.16;72.09
18500;BME280;9379;52.134;11.576;2023-03-16T08:14:29;101584.31;;;6.08;73.39
18500;BME280;9379;52.134;11.576;2023-03-16T08:16:58;101562.25;;;6.09;72.67
18500;BME280;9379;52.134;11.576;2023-03-16T08:19:25;101579.09;;;7.01;71.21
18500;BME280;9379;52.134;11.576;2023-03-16T08:21:52;101585.25;;;6.23;72.45
18500;BME280;9379;52.134;11.576;2023-03-16T08:24:19;101579.50;;;6.32;71.95
18500;BME280;9379;52.134;11.576;2023-03-16T08:26:46;101583.47;;;6.07;73.08
18500;BME280;9379;52.134;11.576;2023-03-16T08:29:13;101582.81;;;6.20;73.07
18500;BME280;9379;52.134;11.576;2023-03-16T08:31:41;101599.22;;;6.09;73.23
18500;BME280;9379;52.134;11.576;2023-03-16T08:34:09;101600.63;;;6.63;72.33
18500;BME280;9379;52.134;11.576;2023-03-16T08:36:36;101599.06;;;6.91;71.94
18500;BME280;9379;52.134;11.576;2023-03-16T08:39:03;101580.72;;;7.03;70.18
18500;BME280;9379;52.134;11.576;2023-03-16T08:41:31;101569.41;;;7.31;68.18
18500;BME280;9379;52.134;11.576;2023-03-16T08:43:59;101603.03;;;7.14;69.06
18500;BME280;9379;52.134;11.576;2023-03-16T08:46:26;101601.44;;;7.11;67.52
18500;BME280;9379;52.134;11.576;2023-03-16T08:48:54;101601.63;;;7.08;67.97
18500;BME280;9379;52.134;11.576;2023-03-16T08:51:21;101594.81;;;7.34;66.43
18500;BME280;9379;52.134;11.576;2023-03-16T08:53:48;101600.75;;;7.96;64.14
18500;BME280;9379;52.134;11.576;2023-03-16T08:56:14;101605.66;;;7.74;63.38
18500;BME280;9379;52.134;11.576;2023-03-16T08:58:41;101584.97;;;7.95;64.22
18500;BME280;9379;52.134;11.576;2023-03-16T09:01:10;101590.28;;;8.23;62.82
18500;BME280;9379;52.134;11.576;2023-03-16T09:03:41;101605.03;;;8.13;63.78
18500;BME280;9379;52.134;11.576;2023-03-16T09:06:14;101601.13;;;7.31;64.90
18500;BME280;9379;52.134;11.576;2023-03-16T09:08:42;101590.78;;;7.57;62.84
18500;BME280;9379;52.134;11.576;2023-03-16T09:11:12;101581.16;;;7.56;62.64
18500;BME280;9379;52.134;11.576;2023-03-16T09:13:40;101568.78;;;7.56;62.44
18500;BME280;9379;52.134;11.576;2023-03-16T09:16:08;101587.47;;;7.09;62.79
18500;BME280;9379;52.134;11.576;2023-03-16T09:18:36;101581.19;;;7.84;63.37
18500;BME280;9379;52.134;11.576;2023-03-16T09:21:05;101582.81;;;8.01;62.27
18500;BME280;9379;52.134;11.576;2023-03-16T09:23:34;101586.78;;;8.23;61.31
18500;BME280;9379;52.134;11.576;2023-03-16T09:26:04;101587.81;;;8.48;60.89
18500;BME280;9379;52.134;11.576;2023-03-16T09:28:32;101596.59;;;7.78;61.19
18500;BME280;9379;52.134;11.576;2023-03-16T09:31:02;101589.81;;;8.02;62.18
18500;BME280;9379;52.134;11.576;2023-03-16T09:33:28;101587.78;;;7.63;63.78
18500;BME280;9379;52.134;11.576;2023-03-16T09:35:57;101600.34;;;7.59;63.04
18500;BME280;9379;52.134;11.576;2023-03-16T09:38:24;101603.19;;;7.71;62.00
18500;BME280;9379;52.134;11.576;2023-03-16T09:40:57;101589.41;;;7.94;60.35
18500;BME280;9379;52.134;11.576;2023-03-16T09:43:41;101591.06;;;8.66;59.86
18500;BME280;9379;52.134;11.576;2023-03-16T09:46:13;101592.72;;;8.40;60.57
18500;BME280;9379;52.134;11.576;2023-03-16T09:48:44;101597.56;;;8.05;60.73
18500;BME280;9379;52.134;11.576;2023-03-16T09:51:17;101584.88;;;7.96;59.88
18500;BME280;9379;52.134;11.576;2023-03-16T09:53:46;101604.19;;;8.12;61.15
18500;BME280;9379;52.134;11.576;2023-03-16T09:56:24;101588.56;;;8.51;59.08
18500;BME280;9379;52.134;11.576;2023-03-16T09:59:13;101584.50;;;8.02;60.55
18500;BME280;9379;52.134;11.576;2023-03-16T10:02:24;101584.88;;;8.25;58.87
18500;BME280;9379;52.134;11.576;2023-03-16T10:05:00;101566.03;;;8.43;58.41
18500;BME280;9379;52.134;11.576;2023-03-16T10:07:40;101593.13;;;9.02;59.41
18500;BME280;9379;52.134;11.576;2023-03-16T10:10:19;101581.56;;;8.50;58.80
18500;BME280;9379;52.134;11.576;2023-03-16T10:12:51;101589.47;;;8.64;58.94
18500;BME280;9379;52.134;11.576;2023-03-16T10:15:22;101575.09;;;8.54;59.18
18500;BME280;9379;52.134;11.576;2023-03-16T10:17:55;101571.41;;;8.56;59.75
18500;BME280;9379;52.134;11.576;2023-03-16T10:20:27;101557.59;;;8.78;59.05
18500;BME280;9379;52.134;11.576;2023-03-16T10:22:58;101552.84;;;8.56;57.85
18500;BME280;9379;52.134;11.576;2023-03-16T10:25:29;101569.53;;;8.85;58.18
18500;BME280;9379;52.134;11.576;2023-03-16T10:28:00;101571.00;;;8.35;57.14
18500;BME280;9379;52.134;11.576;2023-03-16T10:30:28;101568.00;;;8.68;58.96
18500;BME280;9379;52.134;11.576;2023-03-16T10:33:01;101557.97;;;8.86;58.97
18500;BME280;9379;52.134;11.576;2023-03-16T10:35:39;101557.66;;;8.91;58.44
18500;BME280;9379;52.134;11.576;2023-03-16T10:38:07;101551.72;;;9.27;58.43
18500;BME280;9379;52.134;11.576;2023-03-16T10:40:37;101545.66;;;8.85;57.00
18500;BME280;9379;52.134;11.576;2023-03-16T10:43:10;101549.16;;;8.86;56.89
18500;BME280;9379;52.134;11.576;2023-03-16T10:45:38;101539.19;;;9.16;55.67
18500;BME280;9379;52.134;11.576;2023-03-16T10:48:12;101537.28;;;8.91;56.80
18500;BME280;9379;52.134;11.576;2023-03-16T10:50:40;101540.91;;;9.30;56.73
18500;BME280;9379;52.134;11.576;2023-03-16T10:53:15;101526.06;;;9.40;55.92
18500;BME280;9379;52.134;11.576;2023-03-16T10:55:43;101517.13;;;9.79;57.81
18500;BME280;9379;52.134;11.576;2023-03-16T10:58:23;101526.19;;;10.26;55.74
18500;BME280;9379;52.134;11.576;2023-03-16T11:00:51;101529.72;;;10.01;56.80
18500;BME280;9379;52.134;11.576;2023-03-16T11:03:21;101531.97;;;10.07;54.76
18500;BME280;9379;52.134;11.576;2023-03-16T11:05:57;101536.66;;;9.78;56.14
18500;BME280;9379;52.134;11.576;2023-03-16T11:08:26;101531.28;;;10.42;55.91
18500;BME280;9379;52.134;11.576;2023-03-16T11:10:57;101531.09;;;10.80;52.83
18500;BME280;9379;52.134;11.576;2023-03-16T11:13:31;101534.22;;;11.09;53.75
18500;BME280;9379;52.134;11.576;2023-03-16T11:16:01;101522.28;;;10.56;53.57
18500;BME280;9379;52.134;11.576;2023-03-16T11:18:31;101535.94;;;10.38;53.93
18500;BME280;9379;52.134;11.576;2023-03-16T11:21:06;101526.56;;;10.93;51.14
18500;BME280;9379;52.134;11.576;2023-03-16T11:23:36;101530.13;;;10.33;53.21
18500;BME280;9379;52.134;11.576;2023-03-16T11:26:11;101531.78;;;10.47;55.43
18500;BME280;9379;52.134;11.576;2023-03-16T11:28:46;101532.03;;;10.68;55.20
18500;BME280;9379;52.134;11.576;2023-03-16T11:31:20;101527.38;;;10.59;53.98
18500;BME280;9379;52.134;11.576;2023-03-16T11:33:49;101511.59;;;10.44;53.13
18500;BME280;9379;52.134;11.576;2023-03-16T11:36:37;101519.81;;;10.76;53.78
18500;BME280;9379;52.134;11.576;2023-03-16T11:39:16;101511.25;;;10.49;51.78
18500;BME280;9379;52.134;11.576;2023-03-16T11:41:54;101509.75;;;11.28;52.34
18500;BME280;9379;52.134;11.576;2023-03-16T11:44:32;101499.56;;;11.22;51.41
18500;BME280;9379;52.134;11.576;2023-03-16T11:47:06;101504.13;;;10.49;51.38
18500;BME280;9379;52.134;11.576;2023-03-16T11:49:48;101484.41;;;11.00;52.61
18500;BME280;9379;52.134;11.576;2023-03-16T11:52:27;101462.19;;;11.12;51.87
18500;BME280;9379;52.134;11.576;2023-03-16T11:55:03;101474.88;;;10.73;49.17
18500;BME280;9379;52.134;11.576;2023-03-16T11:57:42;101476.00;;;10.82;50.04
18500;BME280;9379;52.134;11.576;2023-03-16T12:00:26;101478.00;;;10.67;50.80
18500;BME280;9379;52.134;11.576;2023-03-16T12:05:38;101451.56;;;11.68;48.52
18500;BME280;9379;52.134;11.576;2023-03-16T12:08:18;101452.53;;;10.87;50.19
18500;BME280;9379;52.134;11.576;2023-03-16T12:10:54;101450.56;;;11.02;50.07
18500;BME280;9379;52.134;11.576;2023-03-16T12:13:32;101436.69;;;11.77;50.38
18500;BME280;9379;52.134;11.576;2023-03-16T12:16:06;101439.69;;;11.16;50.46
18500;BME280;9379;52.134;11.576;2023-03-16T12:18:41;101437.91;;;11.50;50.49
18500;BME280;9379;52.134;11.576;2023-03-16T12:21:14;101443.59;;;11.23;49.83
18500;BME280;9379;52.134;11.576;2023-03-16T12:23:49;101432.34;;;11.42;48.19
18500;BME280;9379;52.134;11.576;2023-03-16T12:26:18;101436.09;;;11.39;48.18
18500;BME280;9379;52.134;11.576;2023-03-16T12:28:47;101434.16;;;11.53;47.35
18500;BME280;9379;52.134;11.576;2023-03-16T12:31:19;101436.38;;;10.90;46.93
18500;BME280;9379;52.134;11.576;2023-03-16T12:34:09;101431.34;;;11.32;47.38
18500;BME280;9379;52.134;11.576;2023-03-16T12:36:54;101424.94;;;11.46;47.47
18500;BME280;9379;52.134;11.576;2023-03-16T12:39:34;101418.31;;;11.62;45.86
18500;BME280;9379;52.134;11.576;2023-03-16T12:42:13;101416.97;;;11.90;48.56
18500;BME280;9379;52.134;11.576;2023-03-16T12:44:46;101410.84;;;10.88;47.92
18500;BME280;9379;52.134;11.576;2023-03-16T12:47:22;101416.09;;;11.23;47.71
18500;BME280;9379;52.134;11.576;2023-03-16T12:49:54;101401.22;;;11.20;46.76
18500;BME280;9379;52.134;11.576;2023-03-16T12:52:38;101406.09;;;11.26;47.07
18500;BME280;9379;52.134;11.576;2023-03-16T12:55:07;101386.59;;;11.15;46.12
18500;BME280;9379;52.134;11.576;2023-03-16T12:57:39;101395.56;;;11.14;46.48
18500;BME280;9379;52.134;11.576;2023-03-16T13:00:07;101395.41;;;10.93;48.18
18500;BME280;9379;52.134;11.576;2023-03-16T13:02:41;101403.66;;;11.01;47.95
18500;BME280;9379;52.134;11.576;2023-03-16T13:05:12;101410.28;;;10.60;48.50
18500;BME280;9379;52.134;11.576;2023-03-16T13:07:46;101416.84;;;10.67;49.29
18500;BME280;9379;52.134;11.576;2023-03-16T13:10:14;101401.72;;;11.14;48.97
18500;BME280;9379;52.134;11.576;2023-03-16T13:12:46;101398.47;;;10.75;48.85